Time;durP1;ratioP1;P1;durP2;ratioP2;P2;SDS_P1;SDS_P2;PMS_P1;PMS_P2;Temp;Humidity;BMP_temperature;BMP_pressure;BME280_temperature;BME280_humidity;BME280_pressure;Samples;Min_cycle;Max_cycle;Signal;HPM_P1;HPM_P2
2023/04/10 00:02:12;;;;;;;3.13;1.88;;;15.90;43.30;;;;;;6010418;29;20484;-69
2023/04/10 00:05:13;;;;;;;9.07;1.98;;;15.80;43.60;;;;;;6014650;29;20179;-68
2023/04/10 00:08:14;;;;;;;3.38;1.60;;;15.80;43.90;;;;;;6014063;29;20489;-68
2023/04/10 00:11:15;;;;;;;2.88;1.63;;;15.70;44.20;;;;;;5985061;29;20042;-66
2023/04/10 00:14:21;;;;;;;5.15;2.22;;;15.70;44.40;;;;;;6013935;29;20059;-69
2023/04/10 00:17:22;;;;;;;4.68;2.05;;;15.60;44.60;;;;;;5984523;29;20042;-68
2023/04/10 00:20:25;;;;;;;2.97;1.88;;;15.60;44.80;;;;;;5984812;29;20030;-70
2023/04/10 00:23:25;;;;;;;4.22;2.10;;;15.50;44.60;;;;;;5985144;29;20030;-68
2023/04/10 00:26:26;;;;;;;9.30;2.17;;;15.50;44.50;;;;;;5984847;29;20037;-68
2023/04/10 00:29:27;;;;;;;5.10;2.25;;;15.50;44.50;;;;;;5982944;29;20031;-68
2023/04/10 00:32:28;;;;;;;3.75;2.13;;;15.40;44.60;;;;;;6013961;29;20043;-68
2023/04/10 00:35:29;;;;;;;3.97;2.20;;;15.30;44.70;;;;;;5984363;29;20573;-68
2023/04/10 00:38:30;;;;;;;4.78;2.03;;;15.30;44.80;;;;;;5993325;29;20242;-67
2023/04/10 00:41:31;;;;;;;5.28;2.33;;;15.30;44.80;;;;;;6006904;29;20037;-69
2023/04/10 00:44:36;;;;;;;4.65;2.60;;;15.20;44.80;;;;;;6006963;29;20026;-68
2023/04/10 00:47:37;;;;;;;3.97;1.98;;;15.30;44.90;;;;;;6005289;29;20029;-68
2023/04/10 00:50:38;;;;;;;4.30;2.28;;;15.20;45.00;;;;;;5986565;29;20087;-68
2023/04/10 00:53:39;;;;;;;4.90;2.15;;;15.20;45.10;;;;;;6013331;29;20386;-68
2023/04/10 00:56:40;;;;;;;3.38;1.70;;;15.10;45.20;;;;;;5983941;29;20042;-68
2023/04/10 00:59:41;;;;;;;3.58;1.90;;;15.10;45.10;;;;;;5983628;29;20139;-68
2023/04/10 01:02:42;;;;;;;2.95;1.50;;;15.10;45.10;;;;;;5982291;29;20058;-68
2023/04/10 01:06:06;;;;;;;4.40;2.30;;;15.10;45.00;;;;;;6012544;29;20329;-68
2023/04/10 01:09:27;;;;;;;3.08;1.73;;;15.00;44.90;;;;;;6012614;29;20781;-69
2023/04/10 01:12:34;;;;;;;3.53;1.90;;;15.00;44.90;;;;;;6029565;29;20229;-69
2023/04/10 01:15:55;;;;;;;4.20;2.17;;;15.00;44.90;;;;;;6003606;29;20090;-69
2023/04/10 01:19:03;;;;;;;5.05;2.45;;;15.00;45.00;;;;;;6004448;29;20128;-68
2023/04/10 01:22:09;;;;;;;3.88;2.17;;;15.00;45.10;;;;;;6018855;29;20030;-67
2023/04/10 01:25:52;;;;;;;2.42;1.30;;;15.00;45.10;;;;;;5968060;29;20093;-68
2023/04/10 01:29:18;;;;;;;3.88;1.60;;;14.90;45.00;;;;;;5983205;29;20039;-68
2023/04/10 01:32:21;;;;;;;2.47;1.42;;;14.90;45.00;;;;;;5984038;29;20069;-68
2023/04/10 01:35:24;;;;;;;2.95;1.85;;;14.80;45.00;;;;;;5982143;29;20042;-68
2023/04/10 01:38:28;;;;;;;1.75;1.48;;;14.80;45.00;;;;;;5993602;29;20037;-68
2023/04/10 01:41:31;;;;;;;2.33;1.42;;;14.80;45.00;;;;;;6005665;29;20378;-68
2023/04/10 01:44:35;;;;;;;3.28;1.77;;;14.80;45.00;;;;;;5997617;29;20031;-67
2023/04/10 01:47:37;;;;;;;4.35;1.85;;;14.80;45.00;;;;;;6011966;29;20128;-68
2023/04/10 01:50:39;;;;;;;4.15;1.63;;;14.70;45.10;;;;;;6012033;29;20038;-67
2023/04/10 01:53:43;;;;;;;3.95;1.90;;;14.70;45.30;;;;;;6011941;29;20129;-67
2023/04/10 01:56:44;;;;;;;3.97;2.15;;;14.70;45.50;;;;;;6011625;29;20097;-68
2023/04/10 01:59:49;;;;;;;3.50;1.95;;;14.70;45.70;;;;;;5981052;29;20115;-67
2023/04/10 02:02:50;;;;;;;3.72;1.98;;;14.60;45.90;;;;;;5980871;29;20030;-69
2023/04/10 02:06:01;;;;;;;3.00;1.73;;;14.60;46.00;;;;;;6011582;29;20041;-67
2023/04/10 02:09:15;;;;;;;3.58;1.88;;;14.60;46.10;;;;;;6011156;29;20113;-68
2023/04/10 02:12:20;;;;;;;3.20;2.00;;;14.50;46.10;;;;;;5997579;29;20036;-67
2023/04/10 02:15:25;;;;;;;4.88;1.95;;;14.50;46.20;;;;;;6005140;29;20026;-68
2023/04/10 02:18:27;;;;;;;4.72;2.17;;;14.40;46.40;;;;;;6033852;29;20134;-67
2023/04/10 02:21:28;;;;;;;2.55;1.70;;;14.40;46.50;;;;;;6034338;29;20030;-67
2023/04/10 02:24:29;;;;;;;3.22;1.85;;;14.40;46.60;;;;;;6023572;29;20079;-68
2023/04/10 02:27:33;;;;;;;3.30;1.92;;;14.30;46.70;;;;;;5980186;29;20465;-69
2023/04/10 02:30:34;;;;;;;3.85;2.03;;;14.30;46.80;;;;;;5980510;29;20045;-67
2023/04/10 02:33:35;;;;;;;3.25;1.77;;;14.30;46.80;;;;;;5980762;29;20027;-67
2023/04/10 02:36:38;;;;;;;2.83;1.80;;;14.30;46.90;;;;;;5980473;29;20376;-68
2023/04/10 02:39:40;;;;;;;4.05;1.92;;;14.30;46.90;;;;;;6000085;29;20029;-68
2023/04/10 02:42:42;;;;;;;2.83;1.77;;;14.30;46.90;;;;;;6001515;29;20039;-68
2023/04/10 02:45:43;;;;;;;3.70;2.30;;;14.20;46.90;;;;;;5966823;29;20039;-67
2023/04/10 02:48:52;;;;;;;4.47;2.20;;;14.20;47.00;;;;;;5973717;29;20042;-69
2023/04/10 02:51:53;;;;;;;2.17;1.60;;;14.20;47.20;;;;;;5988261;29;20068;-67
2023/04/10 02:54:54;;;;;;;3.60;1.95;;;14.20;47.30;;;;;;5988034;29;20431;-68
2023/04/10 02:57:55;;;;;;;7.07;2.58;;;14.20;47.30;;;;;;6007399;29;20152;-68
2023/04/10 03:00:56;;;;;;;5.13;2.65;;;14.20;47.50;;;;;;5979663;29;20382;-68
2023/04/10 03:04:18;;;;;;;4.88;2.30;;;14.20;47.80;;;;;;6010892;29;20031;-68
2023/04/10 03:07:19;;;;;;;2.60;1.60;;;14.10;48.10;;;;;;6011091;29;20038;-69
2023/04/10 03:10:20;;;;;;;2.63;1.50;;;14.10;48.20;;;;;;6012206;29;20038;-68
2023/04/10 03:13:22;;;;;;;3.70;1.58;;;14.00;47.90;;;;;;6018350;29;20376;-67
2023/04/10 03:16:23;;;;;;;5.15;1.60;;;14.00;47.70;;;;;;6033592;29;20038;-67
2023/04/10 03:19:25;;;;;;;4.25;1.80;;;14.00;47.50;;;;;;6033151;29;20030;-69
2023/04/10 03:22:29;;;;;;;2.70;1.42;;;14.00;47.40;;;;;;6003004;29;20447;-67
2023/04/10 03:25:33;;;;;;;7.03;2.00;;;14.00;47.30;;;;;;6002956;29;20033;-69
2023/04/10 03:28:35;;;;;;;2.05;1.38;;;13.90;47.20;;;;;;6002547;29;20034;-68
2023/04/10 03:31:36;;;;;;;6.47;1.70;;;13.90;47.30;;;;;;6004148;29;20310;-69
2023/04/10 03:34:37;;;;;;;9.30;2.45;;;13.90;47.40;;;;;;6033323;29;20041;-68
2023/04/10 03:37:38;;;;;;;3.05;1.75;;;13.80;47.50;;;;;;6026108;29;20053;-68
2023/04/10 03:40:39;;;;;;;3.40;2.17;;;13.80;48.10;;;;;;6014833;29;20058;-66
2023/04/10 03:43:42;;;;;;;3.67;2.15;;;13.80;48.70;;;;;;5984429;29;20026;-67
2023/04/10 03:46:43;;;;;;;4.28;2.13;;;13.70;49.10;;;;;;5992290;29;20045;-68
2023/04/10 03:49:44;;;;;;;10.45;2.10;;;13.70;49.50;;;;;;5976241;29;20038;-68
2023/04/10 03:52:45;;;;;;;3.75;1.98;;;13.60;49.80;;;;;;5978847;29;20179;-69
2023/04/10 03:55:51;;;;;;;4.07;2.35;;;13.50;50.00;;;;;;5995959;29;20193;-67
2023/04/10 03:58:52;;;;;;;3.05;2.10;;;13.50;50.40;;;;;;6014383;29;20438;-67
2023/04/10 04:01:53;;;;;;;3.97;2.22;;;13.50;50.50;;;;;;6014495;29;20042;-68
2023/04/10 04:04:55;;;;;;;3.80;1.92;;;13.40;50.40;;;;;;6014580;29;20030;-67
2023/04/10 04:08:22;;;;;;;3.67;2.17;;;13.40;50.10;;;;;;5984054;29;20040;-67
2023/04/10 04:11:56;;;;;;;4.05;1.83;;;13.40;50.60;;;;;;6004743;29;20196;-68
2023/04/10 04:15:22;;;;;;;4.13;2.05;;;13.30;49.90;;;;;;6004629;29;20196;-68
2023/04/10 04:18:52;;;;;;;3.60;2.15;;;13.40;49.90;;;;;;6004368;29;20258;-67
2023/04/10 04:22:03;;;;;;;9.50;2.08;;;13.30;49.80;;;;;;6004602;29;20046;-68
2023/04/10 04:25:24;;;;;;;3.08;1.90;;;13.30;49.70;;;;;;5986662;29;20038;-67
2023/04/10 04:28:55;;;;;;;3.72;1.70;;;13.30;49.70;;;;;;5980743;29;20057;-67
2023/04/10 04:32:31;;;;;;;3.63;2.03;;;13.20;49.70;;;;;;5936137;30;20162;-67
2023/04/10 04:35:50;;;;;;;8.68;2.05;;;13.20;49.70;;;;;;5936124;29;20047;-69
2023/04/10 04:39:02;;;;;;;3.95;1.95;;;13.20;49.80;;;;;;5936540;29;20045;-68
2023/04/10 04:42:07;;;;;;;2.75;1.92;;;13.10;49.80;;;;;;5959090;29;20047;-68
2023/04/10 04:45:29;;;;;;;4.13;2.00;;;13.10;49.80;;;;;;5954896;29;20413;-67
2023/04/10 04:48:59;;;;;;;4.05;2.00;;;13.10;49.80;;;;;;5826344;30;20334;-69
2023/04/10 04:52:15;;;;;;;3.35;2.05;;;13.10;50.00;;;;;;5812272;30;20041;-67
2023/04/10 04:55:21;;;;;;;4.28;1.85;;;13.10;50.00;;;;;;5812110;30;20037;-68
2023/04/10 04:58:36;;;;;;;3.15;1.80;;;13.10;49.90;;;;;;5811826;30;20045;-67
2023/04/10 05:01:47;;;;;;;3.20;2.00;;;13.10;49.70;;;;;;5840988;30;20048;-67
2023/04/10 05:05:07;;;;;;;2.67;1.88;;;13.10;49.60;;;;;;5849361;30;20036;-68
2023/04/10 05:08:34;;;;;;;3.35;1.90;;;13.10;49.40;;;;;;5891176;30;20044;-67
2023/04/10 05:11:56;;;;;;;5.15;2.03;;;13.10;49.30;;;;;;5887597;30;20501;-67
2023/04/10 05:15:23;;;;;;;3.60;1.92;;;13.10;49.30;;;;;;5876592;30;20036;-68
2023/04/10 05:18:54;;;;;;;7.18;2.05;;;13.00;49.30;;;;;;5912880;30;20048;-68
2023/04/10 05:22:15;;;;;;;7.70;1.75;;;13.00;49.30;;;;;;5934346;29;20047;-67
2023/04/10 05:25:26;;;;;;;4.15;1.80;;;13.00;49.30;;;;;;5925045;30;20144;-68
2023/04/10 05:28:36;;;;;;;3.70;1.92;;;13.00;49.20;;;;;;5919862;30;20035;-67
2023/04/10 05:31:56;;;;;;;3.42;2.00;;;13.00;49.30;;;;;;5935089;29;20052;-68
2023/04/10 05:35:32;;;;;;;5.03;2.03;;;13.00;49.40;;;;;;5934905;30;20075;-68
2023/04/10 05:38:51;;;;;;;9.48;2.47;;;13.00;49.50;;;;;;5935614;29;20039;-67
2023/04/10 05:42:21;;;;;;;2.65;1.90;;;13.00;49.50;;;;;;5890656;30;20036;-69
2023/04/10 05:45:45;;;;;;;3.38;2.05;;;12.90;49.60;;;;;;5890122;30;20431;-68
2023/04/10 05:49:09;;;;;;;7.20;1.90;;;12.90;49.60;;;;;;5868289;30;20463;-68
2023/04/10 05:52:28;;;;;;;4.22;2.35;;;12.90;49.80;;;;;;5868919;30;20041;-67
2023/04/10 05:55:39;;;;;;;6.20;2.58;;;12.90;49.80;;;;;;5853359;30;20698;-69
2023/04/10 05:58:58;;;;;;;9.32;2.17;;;12.90;50.00;;;;;;5847191;30;20053;-68
2023/04/10 06:02:15;;;;;;;4.50;2.40;;;12.90;50.10;;;;;;5846258;30;20073;-67
2023/04/10 06:05:16;;;;;;;3.67;2.28;;;12.90;50.10;;;;;;5846869;30;20145;-68
2023/04/10 06:08:18;;;;;;;6.68;2.15;;;12.90;50.10;;;;;;5846760;30;20037;-68
2023/04/10 06:11:19;;;;;;;3.70;1.92;;;12.90;50.00;;;;;;5839947;30;20083;-68
2023/04/10 06:14:25;;;;;;;4.50;2.05;;;13.00;50.00;;;;;;5839582;30;20045;-67
2023/04/10 06:17:27;;;;;;;5.57;2.70;;;13.10;49.90;;;;;;5852155;30;20087;-69
2023/04/10 06:20:28;;;;;;;5.40;2.50;;;13.10;49.90;;;;;;5912049;30;20115;-68
2023/04/10 06:23:28;;;;;;;9.73;4.13;;;13.20;49.80;;;;;;5912356;30;20094;-68
2023/04/10 06:26:30;;;;;;;3.95;2.45;;;13.20;49.90;;;;;;5983818;29;20536;-68
2023/04/10 06:29:30;;;;;;;15.43;3.05;;;13.30;49.90;;;;;;6010686;29;20033;-69
2023/04/10 06:32:31;;;;;;;6.82;2.60;;;13.30;49.80;;;;;;6011288;29;20043;-68
2023/04/10 06:35:33;;;;;;;6.45;2.40;;;13.30;49.80;;;;;;6011015;29;20042;-67
2023/04/10 06:38:36;;;;;;;5.55;2.83;;;13.30;49.80;;;;;;6011504;29;20094;-68
2023/04/10 06:41:37;;;;;;;8.13;2.65;;;13.30;49.90;;;;;;6010956;29;20129;-67
2023/04/10 06:44:47;;;;;;;6.07;2.72;;;13.40;49.90;;;;;;6008525;29;20030;-68
2023/04/10 06:47:48;;;;;;;5.50;2.90;;;13.50;49.90;;;;;;6010880;29;20210;-68
2023/04/10 06:50:49;;;;;;;5.30;2.65;;;13.60;50.00;;;;;;5982312;29;20034;-68
2023/04/10 06:53:50;;;;;;;6.82;3.08;;;13.60;50.00;;;;;;6011353;29;20041;-67
2023/04/10 06:56:51;;;;;;;5.03;2.85;;;13.70;50.00;;;;;;5982053;29;20034;-68
2023/04/10 06:59:51;;;;;;;5.65;2.92;;;13.80;50.10;;;;;;5981749;29;20029;-69
2023/04/10 07:02:52;;;;;;;26.58;10.23;;;13.80;50.20;;;;;;5981745;29;20027;-68
2023/04/10 07:05:53;;;;;;;9.65;2.97;;;13.90;50.30;;;;;;5981730;29;20061;-67
2023/04/10 07:08:54;;;;;;;5.55;3.20;;;13.90;50.30;;;;;;6010771;29;20461;-67
2023/04/10 07:11:55;;;;;;;4.13;2.45;;;13.90;50.20;;;;;;6023594;29;20413;-68
2023/04/10 07:14:56;;;;;;;17.58;2.95;;;14.00;50.20;;;;;;6008281;29;20137;-68
2023/04/10 07:17:57;;;;;;;13.65;3.10;;;14.00;50.00;;;;;;6038336;29;20034;-68
2023/04/10 07:20:58;;;;;;;5.55;2.88;;;14.10;49.90;;;;;;6008779;29;20105;-67
2023/04/10 07:23:59;;;;;;;6.78;2.97;;;14.20;49.80;;;;;;5990078;29;20038;-68
2023/04/10 07:27:00;;;;;;;4.88;2.35;;;14.30;49.80;;;;;;5999275;29;20034;-69
2023/04/10 07:30:01;;;;;;;6.70;2.75;;;14.40;49.60;;;;;;5985563;29;20038;-68
2023/04/10 07:33:02;;;;;;;7.38;2.53;;;14.40;49.50;;;;;;5985394;29;20046;-69
2023/04/10 07:36:04;;;;;;;5.93;2.75;;;14.50;49.30;;;;;;6014552;29;20034;-68
2023/04/10 07:39:05;;;;;;;3.17;1.88;;;14.50;49.20;;;;;;5985832;29;20106;-68
2023/04/10 07:42:06;;;;;;;4.38;2.45;;;14.70;49.00;;;;;;5985802;29;20484;-68
2023/04/10 07:45:07;;;;;;;3.80;2.17;;;14.80;48.70;;;;;;5985579;29;20031;-67
2023/04/10 07:48:08;;;;;;;2.83;1.98;;;14.80;48.60;;;;;;5985059;29;20392;-67
2023/04/10 07:51:09;;;;;;;4.90;2.22;;;14.90;48.40;;;;;;5985223;29;20046;-67
2023/04/10 07:54:10;;;;;;;3.80;2.53;;;14.90;48.20;;;;;;5983525;29;20449;-69
2023/04/10 07:57:11;;;;;;;4.20;2.53;;;15.10;48.10;;;;;;6013647;29;20056;-69
2023/04/10 08:00:12;;;;;;;5.30;2.90;;;15.20;47.90;;;;;;5984627;29;20023;-68
2023/04/10 08:03:14;;;;;;;5.85;3.00;;;15.30;47.60;;;;;;5984848;29;20117;-68
2023/04/10 08:06:15;;;;;;;4.10;2.75;;;15.40;47.50;;;;;;5983173;29;20041;-68
2023/04/10 08:09:16;;;;;;;3.70;2.38;;;15.50;47.30;;;;;;5984459;29;20058;-68
2023/04/10 08:12:16;;;;;;;3.88;2.50;;;15.70;47.10;;;;;;6029279;29;20038;-68
2023/04/10 08:15:17;;;;;;;5.85;3.00;;;15.80;46.60;;;;;;6037045;29;20061;-67
2023/04/10 08:18:18;;;;;;;4.20;2.80;;;15.90;46.90;;;;;;6004768;29;20039;-68
2023/04/10 08:21:21;;;;;;;3.53;2.17;;;16.00;46.20;;;;;;5984620;29;20518;-67
2023/04/10 08:24:21;;;;;;;3.83;2.28;;;16.20;45.80;;;;;;6012913;29;20058;-68
2023/04/10 08:27:22;;;;;;;2.88;2.17;;;16.40;45.30;;;;;;5983822;29;20036;-68
2023/04/10 08:30:23;;;;;;;7.55;2.75;;;16.50;45.10;;;;;;6013548;29;20129;-68
2023/04/10 08:33:24;;;;;;;5.72;3.30;;;16.70;45.10;;;;;;5983927;29;20035;-68
2023/04/10 08:36:26;;;;;;;5.38;2.20;;;16.80;44.70;;;;;;5983780;29;20031;-67
2023/04/10 08:39:26;;;;;;;6.40;2.65;;;17.00;44.20;;;;;;5984453;29;20030;-69
2023/04/10 08:42:27;;;;;;;4.10;2.55;;;17.20;43.80;;;;;;5984205;29;20103;-67
2023/04/10 08:45:28;;;;;;;3.00;1.98;;;17.40;43.20;;;;;;5984126;29;20031;-67
2023/04/10 08:48:59;;;;;;;4.60;2.17;;;17.50;42.60;;;;;;5983692;29;20042;-68
2023/04/10 08:52:03;;;;;;;3.03;2.30;;;17.60;42.60;;;;;;5986289;29;20403;-69
2023/04/10 08:55:07;;;;;;;3.78;2.65;;;17.80;41.80;;;;;;5982526;29;20133;-67
2023/04/10 08:58:10;;;;;;;6.97;2.67;;;17.90;41.20;;;;;;5983399;29;20231;-69
2023/04/10 09:01:11;;;;;;;5.85;3.00;;;17.90;41.30;;;;;;5997138;29;20144;-68
2023/04/10 09:04:12;;;;;;;3.15;2.45;;;18.10;41.00;;;;;;5983598;29;20452;-68
2023/04/10 09:07:13;;;;;;;5.40;2.40;;;18.20;40.70;;;;;;5983069;29;20086;-69
2023/04/10 09:10:14;;;;;;;4.95;2.58;;;18.30;40.70;;;;;;5983380;29;20130;-67
2023/04/10 09:13:15;;;;;;;3.65;2.35;;;18.40;40.50;;;;;;6020026;29;20030;-68
2023/04/10 09:16:16;;;;;;;3.28;2.13;;;18.60;40.00;;;;;;5990506;29;20468;-69
2023/04/10 09:19:33;;;;;;;2.17;1.42;;;18.70;39.80;;;;;;6011899;29;20042;-67
2023/04/10 09:22:35;;;;;;;5.13;2.33;;;18.80;39.70;;;;;;5983392;29;20030;-69
2023/04/10 09:25:40;;;;;;;2.63;1.95;;;18.90;39.40;;;;;;5983066;29;20365;-67
2023/04/10 09:29:00;;;;;;;4.45;2.00;;;19.10;39.30;;;;;;5983095;29;20033;-67
2023/04/10 09:32:01;;;;;;;2.42;1.60;;;19.10;39.00;;;;;;5960573;29;20030;-69
2023/04/10 09:35:03;;;;;;;2.22;1.60;;;19.30;38.70;;;;;;5994215;29;20424;-67
2023/04/10 09:38:30;;;;;;;2.80;1.98;;;19.40;38.70;;;;;;5996860;29;20467;-68
2023/04/10 09:41:31;;;;;;;3.72;1.88;;;19.50;38.60;;;;;;5982023;29;20026;-69
2023/04/10 09:44:34;;;;;;;7.47;2.78;;;19.60;38.40;;;;;;5981334;29;20049;-69
2023/04/10 09:47:36;;;;;;;3.58;1.90;;;19.70;38.30;;;;;;5981428;29;20041;-68
2023/04/10 09:50:39;;;;;;;2.25;1.95;;;19.80;37.90;;;;;;5983109;29;20168;-67
2023/04/10 09:53:49;;;;;;;3.42;2.10;;;19.90;37.20;;;;;;5982979;29;20377;-68
2023/04/10 09:56:51;;;;;;;3.05;2.00;;;20.00;36.80;;;;;;6011440;29;20388;-69
2023/04/10 09:59:57;;;;;;;3.60;1.70;;;20.10;36.80;;;;;;5981978;29;20109;-68
2023/04/10 10:03:00;;;;;;;1.88;1.23;;;20.20;36.30;;;;;;5982527;29;20551;-67
2023/04/10 10:06:01;;;;;;;1.38;1.27;;;20.30;35.90;;;;;;5982229;29;20550;-69
2023/04/10 10:09:03;;;;;;;3.15;1.35;;;20.50;35.50;;;;;;5980257;29;20033;-69
2023/04/10 10:12:05;;;;;;;3.85;1.98;;;20.60;34.80;;;;;;5982164;29;20360;-68
2023/04/10 10:15:15;;;;;;;2.92;1.63;;;20.70;34.70;;;;;;5981940;29;20030;-68
2023/04/10 10:18:44;;;;;;;2.38;1.70;;;20.80;34.40;;;;;;5982077;29;20067;-68
2023/04/10 10:21:45;;;;;;;2.70;1.38;;;21.00;34.30;;;;;;6011163;29;20034;-69
2023/04/10 10:24:47;;;;;;;5.38;1.38;;;21.20;34.20;;;;;;5980669;29;20066;-67
2023/04/10 10:27:51;;;;;;;3.17;1.40;;;21.40;33.60;;;;;;5981416;29;20030;-68
2023/04/10 10:30:53;;;;;;;2.45;1.70;;;21.50;32.90;;;;;;5980530;29;20315;-68
2023/04/10 10:33:54;;;;;;;1.52;1.17;;;21.50;32.50;;;;;;5980344;29;20069;-69
2023/04/10 10:36:57;;;;;;;1.60;1.20;;;21.60;32.30;;;;;;5981837;29;20034;-68
2023/04/10 10:40:18;;;;;;;1.33;1.13;;;21.70;31.80;;;;;;5982235;29;20022;-68
2023/04/10 10:43:36;;;;;;;1.92;1.30;;;21.70;31.60;;;;;;5981718;29;20026;-68
2023/04/10 10:46:46;;;;;;;2.58;1.10;;;21.80;31.50;;;;;;5981694;29;20113;-69
2023/04/10 10:49:58;;;;;;;2.25;1.50;;;22.00;30.90;;;;;;5981135;29;20494;-69
2023/04/10 10:53:00;;;;;;;2.33;1.40;;;22.20;30.90;;;;;;5981431;29;20093;-68
2023/04/10 10:56:27;;;;;;;1.30;1.20;;;22.50;30.30;;;;;;5981296;29;20130;-68
2023/04/10 10:59:46;;;;;;;2.10;1.30;;;22.70;30.00;;;;;;5981869;29;20174;-68
2023/04/10 11:03:05;;;;;;;;;;;23.10;29.70;;;;;;6011098;29;20555;-69
2023/04/10 11:06:07;;;;;;;1.83;1.05;;;23.40;29.20;;;;;;5980826;29;19922;-68
2023/04/10 11:09:47;;;;;;;2.33;1.30;;;23.60;28.80;;;;;;5981520;29;20144;-67
2023/04/10 11:13:20;;;;;;;1.20;1.10;;;24.00;28.30;;;;;;6000739;29;20037;-68
2023/04/10 11:16:40;;;;;;;2.97;1.30;;;24.30;27.80;;;;;;6000566;29;20050;-68
2023/04/10 11:20:00;;;;;;;2.80;1.10;;;24.60;27.60;;;;;;6000361;29;20102;-68
2023/04/10 11:23:08;;;;;;;2.58;1.20;;;24.80;27.50;;;;;;5989640;29;20042;-68
2023/04/10 11:26:09;;;;;;;1.20;1.10;;;25.10;27.40;;;;;;5977718;29;20038;-67
2023/04/10 11:29:18;;;;;;;1.35;1.10;;;25.20;27.10;;;;;;5993036;29;20417;-69
2023/04/10 11:32:19;;;;;;;1.63;1.23;;;25.40;26.80;;;;;;5962959;29;20051;-67
2023/04/10 11:35:20;;;;;;;1.40;1.13;;;25.50;26.50;;;;;;5978192;29;20304;-69
2023/04/10 11:38:21;;;;;;;2.10;1.20;;;25.60;26.40;;;;;;5978034;29;20042;-68
2023/04/10 11:41:33;;;;;;;2.78;1.50;;;25.70;26.30;;;;;;5962740;29;20390;-68
2023/04/10 11:44:42;;;;;;;3.50;0.90;;;25.80;25.80;;;;;;5977256;29;20043;-68
2023/04/10 11:47:53;;;;;;;1.80;0.95;;;25.80;25.50;;;;;;5977528;29;20038;-68
2023/04/10 11:50:54;;;;;;;1.23;1.10;;;25.70;25.30;;;;;;5978543;29;20050;-68
2023/04/10 11:54:06;;;;;;;4.10;1.58;;;25.80;25.30;;;;;;5981219;29;20042;-70
2023/04/10 11:57:08;;;;;;;2.08;1.23;;;25.90;24.80;;;;;;5980988;29;20095;-67
2023/04/10 12:00:10;;;;;;;1.42;1.10;;;26.10;24.60;;;;;;5996742;29;20035;-69
2023/04/10 12:03:10;;;;;;;2.60;1.23;;;26.10;24.00;;;;;;6014414;29;20039;-69
2023/04/10 12:06:13;;;;;;;3.47;1.15;;;26.20;23.90;;;;;;5984848;29;20026;-68
2023/04/10 12:09:21;;;;;;;1.88;0.90;;;26.30;24.00;;;;;;5983143;29;20030;-68
2023/04/10 12:12:36;;;;;;;1.58;1.17;;;26.80;23.40;;;;;;6000824;29;20565;-69
2023/04/10 12:15:37;;;;;;;2.28;1.10;;;27.20;22.70;;;;;;6007459;29;20536;-68
2023/04/10 12:18:38;;;;;;;1.23;0.70;;;27.70;21.90;;;;;;5999986;29;20136;-66
2023/04/10 12:21:41;;;;;;;1.55;1.10;;;27.90;21.20;;;;;;5984966;29;20121;-69
2023/04/10 12:24:50;;;;;;;1.50;0.60;;;28.10;21.40;;;;;;6007372;29;20030;-68
2023/04/10 12:27:50;;;;;;;1.00;0.70;;;28.70;21.10;;;;;;6007143;29;20039;-67
2023/04/10 12:30:52;;;;;;;1.63;0.80;;;29.50;20.30;;;;;;6006936;29;20100;-69
2023/04/10 12:33:56;;;;;;;1.98;0.93;;;30.10;19.20;;;;;;6006253;29;20081;-68
2023/04/10 12:36:57;;;;;;;2.10;0.85;;;30.40;18.40;;;;;;6007377;29;20021;-68
2023/04/10 12:40:06;;;;;;;2.47;0.90;;;30.70;17.90;;;;;;5989644;29;20048;-68
2023/04/10 12:43:06;;;;;;;4.22;0.90;;;30.90;17.70;;;;;;5988576;29;20034;-68
2023/04/10 12:46:09;;;;;;;1.83;0.80;;;31.00;17.70;;;;;;5975855;29;20023;-69
2023/04/10 12:49:12;;;;;;;0.60;0.60;;;30.70;17.60;;;;;;5962238;29;20445;-67
2023/04/10 12:52:22;;;;;;;0.73;0.70;;;30.30;17.70;;;;;;5962320;29;20030;-69
2023/04/10 12:55:22;;;;;;;1.30;0.60;;;30.00;18.00;;;;;;5962121;29;20057;-67
2023/04/10 12:58:26;;;;;;;0.98;0.80;;;30.00;18.00;;;;;;5990138;29;20031;-68
2023/04/10 13:01:27;;;;;;;0.90;0.80;;;30.10;17.80;;;;;;5978067;29;20062;-68
2023/04/10 13:04:31;;;;;;;3.58;0.98;;;30.30;17.70;;;;;;5983914;29;20488;-68
2023/04/10 13:07:32;;;;;;;0.77;0.77;;;30.70;17.50;;;;;;5983494;29;20042;-69
2023/04/10 13:10:33;;;;;;;0.77;0.63;;;30.90;17.30;;;;;;5983614;29;20109;-69
2023/04/10 13:13:34;;;;;;;2.17;0.80;;;31.10;17.20;;;;;;5983960;29;20041;-67
2023/04/10 13:16:35;;;;;;;1.20;0.80;;;31.70;17.10;;;;;;6012231;29;20061;-68
2023/04/10 13:19:36;;;;;;;1.30;0.68;;;32.50;16.80;;;;;;5983217;29;20078;-69
2023/04/10 13:22:37;;;;;;;11.40;0.88;;;33.30;16.30;;;;;;5982936;29;20110;-68
2023/04/10 13:25:39;;;;;;;1.08;0.80;;;33.40;16.10;;;;;;5983419;29;20528;-67
2023/04/10 13:28:40;;;;;;;0.65;0.65;;;33.60;16.20;;;;;;5982539;29;20496;-68
2023/04/10 13:31:40;;;;;;;1.25;0.80;;;34.00;16.00;;;;;;5982870;29;20095;-69
2023/04/10 13:34:41;;;;;;;1.85;0.80;;;34.00;16.00;;;;;;5982780;29;20053;-68
2023/04/10 13:37:42;;;;;;;1.65;0.73;;;34.10;15.80;;;;;;6012237;29;20059;-69
2023/04/10 13:40:43;;;;;;;1.13;0.70;;;34.10;15.70;;;;;;5982574;29;20075;-68
2023/04/10 13:43:44;;;;;;;1.02;0.80;;;34.00;15.70;;;;;;5982789;29;20031;-68
2023/04/10 13:46:44;;;;;;;1.30;1.02;;;33.60;15.90;;;;;;5989435;29;20030;-69
2023/04/10 13:49:45;;;;;;;1.20;0.80;;;33.40;16.00;;;;;;5960752;29;20584;-68
2023/04/10 13:52:46;;;;;;;3.75;0.85;;;32.90;16.20;;;;;;5960463;29;20441;-68
2023/04/10 13:55:48;;;;;;;1.88;0.90;;;32.30;16.40;;;;;;5960506;29;20118;-68
2023/04/10 13:58:49;;;;;;;2.45;1.05;;;31.80;16.70;;;;;;5959664;29;20388;-69
2023/04/10 14:01:51;;;;;;;1.55;1.10;;;31.30;17.00;;;;;;5959937;29;20134;-69
2023/04/10 14:04:52;;;;;;;0.82;0.80;;;31.00;17.30;;;;;;5959539;29;20095;-69
2023/04/10 14:07:55;;;;;;;1.23;0.80;;;30.50;17.20;;;;;;5959350;29;20031;-69
2023/04/10 14:10:56;;;;;;;3.22;0.80;;;30.00;17.80;;;;;;5964880;29;20125;-68
2023/04/10 14:13:58;;;;;;;0.80;0.80;;;29.50;17.20;;;;;;6010955;29;20089;-70
2023/04/10 14:16:59;;;;;;;1.58;0.90;;;29.00;17.30;;;;;;6010146;29;20041;-69
2023/04/10 14:20:00;;;;;;;0.77;0.70;;;28.60;17.70;;;;;;5982016;29;20452;-68
2023/04/10 14:23:01;;;;;;;0.98;0.85;;;28.40;18.00;;;;;;5981285;29;20034;-69
2023/04/10 14:26:04;;;;;;;1.95;0.90;;;28.30;18.20;;;;;;6010969;29;20277;-69
2023/04/10 14:29:07;;;;;;;1.10;0.93;;;28.10;18.90;;;;;;5981576;29;20042;-68
2023/04/10 14:32:08;;;;;;;1.70;0.98;;;28.00;19.00;;;;;;6010438;29;20037;-68
2023/04/10 14:35:09;;;;;;;2.28;0.90;;;27.80;19.10;;;;;;5981432;29;20137;-68
2023/04/10 14:38:10;;;;;;;0.95;0.90;;;27.60;19.00;;;;;;5982017;29;20034;-69
2023/04/10 14:41:11;;;;;;;1.05;0.95;;;27.50;19.20;;;;;;5981372;29;20436;-68
2023/04/10 14:44:12;;;;;;;1.13;0.70;;;27.30;19.20;;;;;;5981443;29;20033;-68
2023/04/10 14:47:13;;;;;;;1.70;1.00;;;27.20;19.60;;;;;;5981546;29;20235;-68
2023/04/10 14:50:14;;;;;;;1.27;0.90;;;27.10;19.30;;;;;;5981338;29;20095;-68
2023/04/10 14:53:15;;;;;;;1.38;0.80;;;27.00;19.00;;;;;;5981155;29;20038;-69
2023/04/10 14:56:17;;;;;;;0.95;0.70;;;26.90;18.80;;;;;;6010305;29;20038;-68
2023/04/10 14:59:18;;;;;;;1.48;0.93;;;26.80;18.90;;;;;;5980916;29;20023;-68
2023/04/10 15:02:18;;;;;;;1.95;0.80;;;26.70;19.40;;;;;;5981290;29;20768;-67
2023/04/10 15:05:21;;;;;;;1.85;0.80;;;26.60;19.50;;;;;;5981614;29;20425;-67
2023/04/10 15:08:21;;;;;;;1.33;0.80;;;26.60;19.80;;;;;;5981389;29;20134;-68
2023/04/10 15:11:22;;;;;;;0.90;0.80;;;26.50;19.80;;;;;;5989354;29;20125;-68
2023/04/10 15:14:23;;;;;;;0.98;0.88;;;26.40;20.00;;;;;;6002233;29;20121;-68
2023/04/10 15:17:24;;;;;;;1.40;0.80;;;26.30;20.20;;;;;;6003036;29;20060;-68
2023/04/10 15:20:25;;;;;;;1.00;0.88;;;26.20;20.40;;;;;;5983764;29;20038;-68
2023/04/10 15:23:26;;;;;;;0.70;0.70;;;26.00;20.50;;;;;;6009960;29;20097;-68
2023/04/10 15:26:27;;;;;;;0.68;0.68;;;25.80;20.60;;;;;;5980991;29;20128;-68
2023/04/10 15:29:27;;;;;;;2.50;1.15;;;25.70;20.90;;;;;;6009223;29;20433;-67
2023/04/10 15:32:29;;;;;;;2.38;1.02;;;25.50;21.00;;;;;;5980543;29;20044;-68
2023/04/10 15:35:35;;;;;;;1.42;1.02;;;25.40;21.20;;;;;;5983404;29;20034;-68
2023/04/10 15:38:36;;;;;;;1.48;1.02;;;25.40;21.30;;;;;;6014552;29;20121;-69
2023/04/10 15:41:37;;;;;;;1.15;0.90;;;25.30;21.40;;;;;;5984887;29;20373;-69
2023/04/10 15:44:38;;;;;;;1.77;0.90;;;25.20;21.50;;;;;;5984768;29;20037;-69
2023/04/10 15:47:39;;;;;;;1.00;0.90;;;25.20;21.80;;;;;;6014274;29;20038;-67
2023/04/10 15:50:39;;;;;;;0.93;0.80;;;25.10;22.00;;;;;;5984931;29;20106;-68
2023/04/10 15:53:40;;;;;;;1.00;0.90;;;25.00;22.10;;;;;;5985202;29;20094;-69
2023/04/10 15:56:41;;;;;;;1.95;1.10;;;25.00;22.30;;;;;;5985169;29;20043;-68
2023/04/10 15:59:42;;;;;;;0.77;0.77;;;24.90;22.30;;;;;;5985010;29;20030;-67
2023/04/10 16:02:43;;;;;;;1.42;0.82;;;24.90;22.40;;;;;;6013635;29;20049;-67
2023/04/10 16:05:44;;;;;;;0.70;0.70;;;24.90;22.50;;;;;;5984541;29;20111;-69
2023/04/10 16:08:45;;;;;;;3.95;0.75;;;24.90;22.60;;;;;;5984195;29;20035;-68